Time;durP1;ratioP1;P1;durP2;ratioP2;P2;SDS_P1;SDS_P2;PMS_P1;PMS_P2;Temp;Humidity;BMP_temperature;BMP_pressure;BME280_temperature;BME280_humidity;BME280_pressure;Samples;Min_cycle;Max_cycle;Signal;HPM_P1;HPM_P2
2022/01/03 00:01:07;;;;;;;1.63;1.00;;;26.00;49.70;;;;;;5135146;22;20032;-66
2022/01/03 00:03:12;;;;;;;1.60;1.00;;;25.90;49.80;;;;;;5133005;22;20035;-65
2022/01/03 00:05:14;;;;;;;2.05;0.93;;;25.80;49.80;;;;;;5137874;22;20308;-68
2022/01/03 00:07:17;;;;;;;2.13;0.93;;;25.60;50.00;;;;;;5139933;22;20028;-68
2022/01/03 00:09:19;;;;;;;1.67;0.85;;;25.60;50.20;;;;;;5131933;23;20035;-66
2022/01/03 00:11:22;;;;;;;2.90;1.10;;;25.50;50.30;;;;;;5133634;22;20057;-64
2022/01/03 00:13:25;;;;;;;0.85;0.73;;;25.40;50.50;;;;;;5139335;23;20296;-65
2022/01/03 00:15:27;;;;;;;;;;;25.40;50.50;;;;;;5133663;22;21134;-66
2022/01/03 00:17:29;;;;;;;2.05;1.00;;;25.30;50.60;;;;;;5121999;23;19939;-63
2022/01/03 00:19:31;;;;;;;1.40;0.80;;;25.20;51.00;;;;;;5092350;23;20034;-64
2022/01/03 00:21:46;;;;;;;1.73;1.00;;;25.10;51.40;;;;;;5105464;23;21340;-63
2022/01/03 00:23:56;;;;;;;1.80;0.95;;;25.10;51.20;;;;;;5111291;22;20229;-65
2022/01/03 00:26:01;;;;;;;2.42;1.17;;;25.00;52.10;;;;;;5113111;22;20088;-64
2022/01/03 00:28:15;;;;;;;1.90;1.23;;;24.90;51.70;;;;;;5111821;22;20094;-64
2022/01/03 00:30:22;;;;;;;2.80;1.20;;;24.90;51.80;;;;;;5113463;22;20059;-64
2022/01/03 00:32:25;;;;;;;2.03;0.90;;;24.80;51.80;;;;;;5108313;23;20042;-66
2022/01/03 00:34:27;;;;;;;;;;;24.70;52.00;;;;;;5118407;22;20809;-64
2022/01/03 00:36:31;;;;;;;1.67;0.80;;;24.70;52.20;;;;;;5114708;23;20120;-66
2022/01/03 00:38:35;;;;;;;1.52;0.88;;;24.60;51.90;;;;;;5115029;22;20044;-64
2022/01/03 00:40:38;;;;;;;1.52;1.00;;;24.60;52.00;;;;;;5116185;23;20036;-63
2022/01/03 00:42:41;;;;;;;3.72;0.93;;;24.50;52.30;;;;;;5123403;23;20083;-64
2022/01/03 00:44:46;;;;;;;1.80;0.95;;;24.50;52.40;;;;;;5116617;23;21108;-62
2022/01/03 00:46:48;;;;;;;1.98;1.00;;;24.40;52.60;;;;;;5119866;22;20104;-61
2022/01/03 00:48:50;;;;;;;1.80;1.10;;;24.40;52.60;;;;;;5117202;23;20132;-62
2022/01/03 00:50:53;;;;;;;1.93;1.00;;;24.30;52.80;;;;;;5123165;23;20545;-63
2022/01/03 00:52:55;;;;;;;1.90;1.00;;;24.30;52.80;;;;;;5113998;23;20028;-64
2022/01/03 00:54:57;;;;;;;1.60;0.93;;;24.20;53.00;;;;;;5117474;22;20031;-62
2022/01/03 00:57:04;;;;;;;2.15;0.95;;;24.20;53.40;;;;;;5123649;23;20034;-66
2022/01/03 00:59:15;;;;;;;0.63;0.60;;;24.30;54.30;;;;;;5121171;23;20492;-60
2022/01/03 01:01:19;;;;;;;0.93;0.60;;;24.40;55.40;;;;;;5103790;22;20127;-66
2022/01/03 01:03:25;;;;;;;2.47;1.08;;;24.50;55.70;;;;;;5108981;23;20032;-63
2022/01/03 01:05:28;;;;;;;2.58;1.00;;;24.60;56.80;;;;;;5118264;22;20027;-61
2022/01/03 01:07:32;;;;;;;0.52;0.52;;;24.70;57.50;;;;;;5126724;22;20024;-65
2022/01/03 01:09:35;;;;;;;6.55;1.40;;;24.80;57.80;;;;;;5120251;23;20393;-66
2022/01/03 01:11:40;;;;;;;;;;;24.90;58.30;;;;;;5117277;22;20107;-63
2022/01/03 01:13:44;;;;;;;1.70;0.80;;;25.00;57.90;;;;;;5119090;22;19919;-62
2022/01/03 01:15:46;;;;;;;3.97;1.50;;;25.10;58.10;;;;;;5126189;22;20024;-69
2022/01/03 01:17:51;;;;;;;3.47;1.42;;;25.20;58.60;;;;;;5120223;23;20063;-65
2022/01/03 01:19:56;;;;;;;4.63;1.00;;;25.20;58.60;;;;;;5119747;22;20461;-66
2022/01/03 01:21:59;;;;;;;5.22;1.20;;;25.30;58.80;;;;;;5120207;22;20024;-68
2022/01/03 01:24:02;;;;;;;3.63;0.93;;;25.40;58.80;;;;;;5127129;22;20441;-63
2022/01/03 01:28:25;;;;;;;2.85;0.93;;;25.50;58.90;;;;;;5127327;23;20024;-64
2022/01/03 01:30:28;;;;;;;3.13;1.00;;;25.60;59.20;;;;;;5121022;23;20056;-64
2022/01/03 01:32:31;;;;;;;3.13;0.90;;;25.70;59.20;;;;;;5119878;23;20039;-62
2022/01/03 01:34:39;;;;;;;1.98;0.80;;;25.80;59.20;;;;;;5123941;23;20035;-67
2022/01/03 01:36:45;;;;;;;2.25;0.90;;;25.80;59.30;;;;;;5126630;22;20118;-60
2022/01/03 01:38:50;;;;;;;6.10;1.38;;;25.90;59.40;;;;;;5119981;23;20065;-67
2022/01/03 01:40:55;;;;;;;2.65;1.10;;;26.00;59.40;;;;;;5121260;22;20113;-66
2022/01/03 01:42:59;;;;;;;3.95;1.10;;;26.10;59.50;;;;;;5122302;22;20038;-64
2022/01/03 01:45:08;;;;;;;2.60;1.10;;;26.10;59.50;;;;;;5129749;22;20094;-67
2022/01/03 01:47:11;;;;;;;4.63;1.42;;;26.20;59.50;;;;;;5135753;22;20035;-66
2022/01/03 01:49:23;;;;;;;5.20;1.10;;;26.30;59.60;;;;;;5126422;22;20033;-64
2022/01/03 01:51:26;;;;;;;3.95;1.27;;;26.30;59.60;;;;;;5127558;22;20244;-64
2022/01/03 01:53:29;;;;;;;10.73;2.05;;;26.40;59.60;;;;;;5124506;22;20023;-63
2022/01/03 01:55:31;;;;;;;5.10;1.58;;;26.50;59.70;;;;;;5129193;23;20817;-61
2022/01/03 01:57:40;;;;;;;4.82;1.50;;;26.50;59.90;;;;;;5124304;22;20031;-63
2022/01/03 02:00:13;;;;;;;4.53;1.33;;;26.60;60.30;;;;;;5118828;22;20620;-66
2022/01/03 02:02:35;;;;;;;2.55;1.35;;;26.60;59.60;;;;;;5121128;22;20035;-66
2022/01/03 02:04:46;;;;;;;4.40;1.40;;;26.70;59.70;;;;;;5120279;22;20031;-68
2022/01/03 02:06:49;;;;;;;4.82;1.40;;;26.80;59.80;;;;;;5122867;22;20035;-64
2022/01/03 02:09:09;;;;;;;4.70;1.25;;;26.80;59.70;;;;;;5118141;23;20024;-64
2022/01/03 02:11:32;;;;;;;5.50;1.83;;;26.90;59.90;;;;;;5120375;23;20189;-63
2022/01/03 02:13:36;;;;;;;7.55;2.35;;;26.90;59.80;;;;;;5126600;22;20030;-65
2022/01/03 02:15:39;;;;;;;7.03;1.95;;;27.00;59.90;;;;;;5122881;22;20131;-63
2022/01/03 02:17:46;;;;;;;8.77;2.05;;;27.00;59.90;;;;;;5120692;22;20058;-67
2022/01/03 02:20:08;;;;;;;5.85;2.15;;;27.10;59.90;;;;;;5125022;22;20031;-63
2022/01/03 02:22:10;;;;;;;6.07;2.20;;;27.10;59.90;;;;;;5118326;22;20374;-64
2022/01/03 02:24:13;;;;;;;9.98;2.17;;;27.20;59.80;;;;;;5124672;22;20589;-64
2022/01/03 02:26:15;;;;;;;6.95;2.28;;;27.20;59.90;;;;;;5124496;22;20512;-63
2022/01/03 02:28:20;;;;;;;7.07;1.87;;;27.30;59.80;;;;;;5117434;23;20035;-65
2022/01/03 02:30:26;;;;;;;5.18;1.88;;;27.30;59.60;;;;;;5119386;22;20028;-64
2022/01/03 02:32:28;;;;;;;5.38;1.58;;;27.30;59.30;;;;;;5125099;22;20028;-64
2022/01/03 02:34:30;;;;;;;9.55;1.35;;;27.40;59.30;;;;;;5123209;22;20444;-65
2022/01/03 02:36:34;;;;;;;8.50;1.90;;;27.40;59.30;;;;;;5119429;22;20030;-64
2022/01/03 02:38:37;;;;;;;5.95;1.40;;;27.40;59.50;;;;;;5118355;22;20028;-64
2022/01/03 02:40:40;;;;;;;5.10;1.27;;;27.50;59.40;;;;;;5126417;22;20433;-63
2022/01/03 02:42:42;;;;;;;3.58;1.27;;;27.50;59.40;;;;;;5116986;22;20055;-65
2022/01/03 02:44:45;;;;;;;9.90;1.58;;;27.50;59.40;;;;;;5119841;22;20032;-63
2022/01/03 02:46:47;;;;;;;5.40;1.20;;;27.50;59.30;;;;;;5121246;23;20028;-63
2022/01/03 02:48:49;;;;;;;4.35;1.15;;;27.60;59.30;;;;;;5121128;22;21271;-68
2022/01/03 02:50:52;;;;;;;3.13;1.08;;;27.60;59.40;;;;;;5120830;22;20073;-67
2022/01/03 02:52:55;;;;;;;3.53;1.00;;;27.70;59.40;;;;;;5121879;22;20095;-66
2022/01/03 02:54:57;;;;;;;3.25;1.13;;;27.70;59.30;;;;;;5124667;23;20020;-65
2022/01/03 02:57:00;;;;;;;2.40;1.10;;;27.80;59.40;;;;;;5118036;22;20230;-57
2022/01/03 02:59:03;;;;;;;5.03;1.10;;;27.80;59.20;;;;;;5116393;23;20771;-64
2022/01/03 03:01:05;;;;;;;3.00;0.85;;;27.80;58.90;;;;;;5122737;23;20344;-67
2022/01/03 03:03:07;;;;;;;2.50;0.75;;;27.90;58.80;;;;;;5121194;22;20026;-66
2022/01/03 03:05:11;;;;;;;3.13;0.93;;;27.90;58.80;;;;;;5067102;23;20051;-65
2022/01/03 03:07:25;;;;;;;4.63;0.95;;;27.90;58.50;;;;;;5122120;22;20438;-70
2022/01/03 03:09:27;;;;;;;5.10;0.93;;;28.00;58.50;;;;;;5116907;22;20728;-69
2022/01/03 03:11:29;;;;;;;2.65;0.90;;;28.00;57.60;;;;;;5127316;22;20134;-69
2022/01/03 03:13:31;;;;;;;2.10;1.00;;;27.90;55.50;;;;;;5116954;23;20035;-68
2022/01/03 03:15:34;;;;;;;2.58;1.08;;;27.80;54.40;;;;;;5121954;22;20433;-69
2022/01/03 03:17:39;;;;;;;2.55;1.10;;;27.60;53.60;;;;;;5120479;22;20047;-69
2022/01/03 03:19:59;;;;;;;3.90;1.17;;;27.40;53.00;;;;;;5125899;22;20032;-68
2022/01/03 03:22:01;;;;;;;1.80;0.93;;;27.30;52.80;;;;;;5120108;22;20894;-69
2022/01/03 03:24:03;;;;;;;2.60;1.30;;;27.30;52.60;;;;;;5125734;22;20059;-68
2022/01/03 03:26:05;;;;;;;2.80;1.03;;;27.20;52.30;;;;;;5120687;22;20054;-71
2022/01/03 03:28:11;;;;;;;1.98;0.90;;;27.10;52.40;;;;;;5120720;22;20024;-69
2022/01/03 03:30:22;;;;;;;2.03;0.80;;;27.00;52.30;;;;;;5121804;23;20036;-68
2022/01/03 03:32:27;;;;;;;2.67;1.00;;;26.90;52.90;;;;;;5118745;22;20213;-69
2022/01/03 03:34:29;;;;;;;2.58;1.10;;;26.90;52.20;;;;;;5130322;22;20035;-69
2022/01/03 03:36:31;;;;;;;2.23;1.00;;;26.80;52.10;;;;;;5118458;23;20031;-68
2022/01/03 03:38:34;;;;;;;1.88;1.10;;;26.70;52.00;;;;;;5121501;22;20034;-68
2022/01/03 03:40:37;;;;;;;2.65;1.13;;;26.70;52.30;;;;;;5120592;23;20032;-69
2022/01/03 03:42:41;;;;;;;2.90;1.00;;;26.60;51.80;;;;;;5127525;23;20036;-70
2022/01/03 03:44:45;;;;;;;1.58;0.77;;;26.60;51.80;;;;;;5123310;22;20024;-73
2022/01/03 03:46:47;;;;;;;2.42;1.00;;;26.50;51.80;;;;;;5123535;22;20068;-73
2022/01/03 03:48:49;;;;;;;1.60;0.90;;;26.50;51.80;;;;;;5122555;22;20419;-69
2022/01/03 03:50:51;;;;;;;2.75;1.10;;;26.40;52.00;;;;;;5127324;23;20103;-70
2022/01/03 03:52:53;;;;;;;2.17;0.90;;;26.40;52.00;;;;;;5121430;22;20126;-70
2022/01/03 03:54:56;;;;;;;2.17;1.00;;;26.30;52.20;;;;;;5122664;22;20024;-69
2022/01/03 03:56:59;;;;;;;1.58;0.88;;;26.30;52.10;;;;;;5126337;22;20098;-69
2022/01/03 03:59:01;;;;;;;2.10;1.00;;;26.20;52.10;;;;;;5130249;22;20839;-70
2022/01/03 04:01:03;;;;;;;2.83;1.15;;;26.20;52.20;;;;;;5118503;23;20055;-68
2022/01/03 04:03:06;;;;;;;0.90;0.60;;;26.10;52.30;;;;;;5122296;22;20127;-72
2022/01/03 04:05:09;;;;;;;2.22;1.00;;;26.10;52.30;;;;;;5129123;22;20055;-71
2022/01/03 04:07:11;;;;;;;3.10;1.13;;;26.00;52.20;;;;;;5125626;22;20050;-67
2022/01/03 04:09:13;;;;;;;2.63;1.10;;;26.00;52.30;;;;;;5121297;22;20090;-70
2022/01/03 04:11:16;;;;;;;1.98;0.80;;;26.00;52.30;;;;;;5123756;22;20066;-68
2022/01/03 04:13:18;;;;;;;1.90;1.00;;;26.00;52.20;;;;;;5128535;22;20032;-67
2022/01/03 04:15:20;;;;;;;2.03;0.98;;;25.90;52.10;;;;;;5123406;22;20875;-67
2022/01/03 04:17:22;;;;;;;1.83;0.90;;;25.90;52.10;;;;;;5122737;22;20028;-69
2022/01/03 04:19:24;;;;;;;2.65;0.93;;;25.90;52.20;;;;;;5127012;22;20040;-70
2022/01/03 04:21:27;;;;;;;2.15;0.77;;;25.80;51.70;;;;;;5128156;22;20448;-69
2022/01/03 04:23:29;;;;;;;3.63;0.85;;;25.70;51.40;;;;;;5118804;23;20363;-69
2022/01/03 04:25:31;;;;;;;1.00;0.70;;;25.60;51.50;;;;;;5121625;22;20137;-68
2022/01/03 04:27:33;;;;;;;2.10;1.08;;;25.60;51.30;;;;;;5127556;22;20127;-67
2022/01/03 04:29:35;;;;;;;1.70;0.80;;;25.50;51.40;;;;;;5117167;22;20863;-69
2022/01/03 04:31:38;;;;;;;1.90;1.00;;;25.50;51.70;;;;;;5122497;22;20229;-69
2022/01/03 04:33:40;;;;;;;1.73;1.00;;;25.40;51.60;;;;;;5097840;23;20035;-70
2022/01/03 04:35:42;;;;;;;1.27;0.95;;;25.40;51.70;;;;;;5129965;22;20354;-69
2022/01/03 04:37:44;;;;;;;1.92;1.17;;;25.30;51.90;;;;;;5121049;22;20062;-70
2022/01/03 04:39:46;;;;;;;3.10;1.15;;;25.30;51.90;;;;;;5122408;22;20028;-69
2022/01/03 04:41:48;;;;;;;3.00;1.13;;;25.20;52.00;;;;;;5128620;22;20035;-71
2022/01/03 04:43:50;;;;;;;1.92;0.90;;;25.20;52.00;;;;;;5123607;22;20024;-70
2022/01/03 04:45:54;;;;;;;1.67;0.80;;;25.10;51.10;;;;;;5120258;22;20039;-68
2022/01/03 04:47:57;;;;;;;2.88;1.33;;;25.10;51.90;;;;;;5118523;23;20109;-68
2022/01/03 04:49:59;;;;;;;2.42;0.90;;;25.10;52.30;;;;;;5130019;22;20028;-68
2022/01/03 04:52:02;;;;;;;1.08;0.65;;;25.10;52.30;;;;;;5124495;23;20245;-69
2022/01/03 04:54:04;;;;;;;1.85;0.90;;;25.00;52.30;;;;;;5121617;23;20028;-69
2022/01/03 04:56:11;;;;;;;1.48;0.85;;;25.00;52.70;;;;;;5124246;22;20114;-67
2022/01/03 04:58:13;;;;;;;3.55;1.20;;;25.00;52.60;;;;;;5128100;22;20377;-68
2022/01/03 05:00:16;;;;;;;2.08;0.98;;;24.90;52.60;;;;;;5128837;22;20075;-70
2022/01/03 05:02:19;;;;;;;2.05;0.93;;;24.90;52.50;;;;;;5124963;22;20039;-70
2022/01/03 05:04:21;;;;;;;2.63;0.73;;;24.90;52.70;;;;;;5121997;23;20123;-68
2022/01/03 05:06:23;;;;;;;2.17;1.13;;;24.80;52.40;;;;;;5128058;23;20490;-68
2022/01/03 05:08:25;;;;;;;2.10;0.80;;;24.80;52.50;;;;;;5123916;22;20313;-67
2022/01/03 05:10:28;;;;;;;2.53;1.00;;;24.80;52.60;;;;;;5123670;22;20031;-71
2022/01/03 05:12:30;;;;;;;1.08;0.80;;;24.80;53.10;;;;;;5124471;22;20107;-74
2022/01/03 05:14:32;;;;;;;2.03;1.05;;;24.80;53.30;;;;;;5128125;23;20107;-65
2022/01/03 05:16:34;;;;;;;2.80;1.13;;;24.70;53.30;;;;;;5123666;22;20712;-66
2022/01/03 05:18:37;;;;;;;5.07;1.38;;;24.70;53.40;;;;;;5122787;23;20043;-62
2022/01/03 05:20:40;;;;;;;2.05;1.00;;;24.70;53.80;;;;;;5100165;23;20084;-62
2022/01/03 05:22:43;;;;;;;2.78;1.10;;;24.60;53.70;;;;;;5130070;22;20489;-65
2022/01/03 05:24:46;;;;;;;2.00;0.90;;;24.60;53.70;;;;;;5120790;22;20244;-66
2022/01/03 05:26:48;;;;;;;1.40;0.90;;;24.60;53.50;;;;;;5121388;23;20028;-63
2022/01/03 05:28:50;;;;;;;1.30;1.00;;;24.50;53.50;;;;;;5127807;22;20059;-61
2022/01/03 05:30:53;;;;;;;1.75;0.90;;;24.50;53.60;;;;;;5125536;22;20582;-62
2022/01/03 05:32:55;;;;;;;1.38;0.85;;;24.50;53.70;;;;;;5116697;23;20028;-63
2022/01/03 05:34:57;;;;;;;2.17;1.10;;;24.50;53.60;;;;;;5119669;23;20029;-59
2022/01/03 05:36:59;;;;;;;1.80;0.90;;;24.50;54.10;;;;;;5128800;22;20905;-63
2022/01/03 05:39:01;;;;;;;2.80;1.20;;;24.50;53.80;;;;;;5123937;22;20035;-63
2022/01/03 05:41:03;;;;;;;2.08;1.15;;;24.50;54.00;;;;;;5124963;22;20021;-62
2022/01/03 05:43:06;;;;;;;2.95;1.13;;;24.50;54.30;;;;;;5127375;22;20028;-61
2022/01/03 05:45:08;;;;;;;2.35;1.00;;;24.40;54.30;;;;;;5127004;22;20055;-62
2022/01/03 05:47:10;;;;;;;2.63;1.13;;;24.40;54.20;;;;;;5123150;22;20135;-62
2022/01/03 05:49:12;;;;;;;2.33;1.20;;;24.50;54.20;;;;;;5119675;23;20118;-65
2022/01/03 05:51:15;;;;;;;2.30;1.00;;;24.40;54.10;;;;;;5129182;22;20938;-61
2022/01/03 05:53:17;;;;;;;2.20;1.03;;;24.40;54.20;;;;;;5128490;22;20024;-62
2022/01/03 05:55:20;;;;;;;2.05;1.25;;;24.30;54.30;;;;;;5128836;22;20269;-63
2022/01/03 05:57:23;;;;;;;3.63;2.08;;;24.30;54.60;;;;;;5125684;23;20042;-63
2022/01/03 05:59:26;;;;;;;8.05;7.03;;;24.20;54.90;;;;;;5134000;22;20028;-64
2022/01/03 06:01:28;;;;;;;11.73;9.70;;;24.20;55.00;;;;;;5102033;23;20486;-60
2022/01/03 06:03:36;;;;;;;15.02;13.63;;;24.20;55.20;;;;;;5122744;23;20083;-62
2022/01/03 06:07:40;;;;;;;15.50;14.10;;;24.10;55.00;;;;;;5129821;22;20027;-63
2022/01/03 06:09:43;;;;;;;13.80;12.60;;;24.10;55.20;;;;;;5123856;23;20031;-65
2022/01/03 06:11:46;;;;;;;14.02;12.90;;;24.10;55.50;;;;;;5123746;22;20028;-61
2022/01/03 06:13:48;;;;;;;23.30;21.38;;;24.00;55.40;;;;;;5127516;22;20024;-63
2022/01/03 06:15:50;;;;;;;32.78;30.20;;;24.00;55.50;;;;;;5122944;23;20165;-61
2022/01/03 06:17:54;;;;;;;50.75;46.85;;;24.00;55.40;;;;;;5118310;23;20028;-64
2022/01/03 06:19:56;;;;;;;66.95;61.88;;;24.00;55.30;;;;;;5120207;22;20051;-63
2022/01/03 06:21:58;;;;;;;71.50;66.07;;;23.90;55.10;;;;;;5127096;22;20030;-64
2022/01/03 06:24:01;;;;;;;72.37;66.90;;;23.90;55.30;;;;;;5118271;23;20024;-61
2022/01/03 06:26:03;;;;;;;69.05;63.90;;;23.90;55.10;;;;;;5124612;22;20036;-62
2022/01/03 06:28:07;;;;;;;67.40;62.40;;;23.80;55.50;;;;;;5128214;22;20374;-63
2022/01/03 06:30:12;;;;;;;64.18;59.38;;;23.80;55.10;;;;;;5124090;23;20032;-64
2022/01/03 06:32:14;;;;;;;58.33;53.90;;;23.80;54.90;;;;;;5123390;22;20024;-62
2022/01/03 06:34:17;;;;;;;51.33;47.42;;;23.80;54.80;;;;;;5121709;23;20504;-63
2022/01/03 06:36:19;;;;;;;47.53;43.92;;;23.90;54.80;;;;;;5127055;23;20028;-59
2022/01/03 06:38:21;;;;;;;42.88;39.25;;;23.90;54.30;;;;;;5124663;22;20028;-60
2022/01/03 06:40:25;;;;;;;38.38;35.45;;;23.90;54.20;;;;;;5123316;22;20735;-60
2022/01/03 06:42:27;;;;;;;35.78;33.08;;;23.90;54.20;;;;;;5126543;22;20059;-60
2022/01/03 06:44:29;;;;;;;32.83;30.30;;;23.90;54.20;;;;;;5124950;22;20353;-60
2022/01/03 06:46:32;;;;;;;29.00;26.95;;;23.80;54.20;;;;;;5122690;23;20513;-60
2022/01/03 06:48:34;;;;;;;26.00;24.10;;;23.80;54.80;;;;;;5124713;22;20416;-57
2022/01/03 06:50:36;;;;;;;20.40;18.55;;;23.80;55.00;;;;;;5129975;22;20036;-58
2022/01/03 06:52:38;;;;;;;19.23;17.25;;;23.70;55.30;;;;;;5121190;22;20664;-59
2022/01/03 06:54:41;;;;;;;15.65;14.15;;;23.70;55.40;;;;;;5121319;22;20027;-59
2022/01/03 06:56:43;;;;;;;13.50;12.13;;;23.70;55.50;;;;;;5123187;23;20098;-58
2022/01/03 06:58:46;;;;;;;11.50;10.40;;;23.60;55.80;;;;;;5115747;22;20035;-62
2022/01/03 07:02:10;;;;;;;7.75;7.05;;;23.50;55.30;;;;;;4138588;27;2528304;-57
2022/01/03 07:04:12;;;;;;;7.65;7.05;;;23.50;56.40;;;;;;4183171;27;20063;-60
2022/01/03 07:06:15;;;;;;;6.80;6.15;;;23.50;55.70;;;;;;4200955;27;20047;-60
2022/01/03 07:08:20;;;;;;;6.78;6.18;;;23.40;55.70;;;;;;4195695;27;20046;-60
2022/01/03 07:10:23;;;;;;;5.90;5.40;;;23.40;55.80;;;;;;4204375;27;21760;-60
2022/01/03 07:12:25;;;;;;;7.13;5.40;;;23.40;55.80;;;;;;4199969;27;20042;-61
2022/01/03 07:18:56;;;;;;;4.05;3.65;;;23.20;55.80;;;;;;4210957;27;20047;-61
2022/01/03 07:20:58;;;;;;;4.75;3.40;;;23.20;55.80;;;;;;4210035;27;20106;-60
2022/01/03 07:23:00;;;;;;;3.30;2.97;;;23.20;55.90;;;;;;4203673;27;20051;-59
2022/01/03 07:25:03;;;;;;;4.35;3.33;;;23.10;55.70;;;;;;4187843;27;20175;-60
2022/01/03 07:27:08;;;;;;;4.93;3.13;;;23.20;55.80;;;;;;4197453;27;20071;-59
2022/01/03 07:29:10;;;;;;;5.15;3.30;;;23.10;56.20;;;;;;4180679;28;20654;-59
2022/01/03 07:31:13;;;;;;;6.95;4.32;;;23.10;55.80;;;;;;4190692;27;20085;-59
2022/01/03 07:33:15;;;;;;;7.93;4.90;;;23.10;55.60;;;;;;4194252;27;20538;-58
2022/01/03 07:35:17;;;;;;;12.95;6.38;;;23.00;55.90;;;;;;4212288;27;20055;-60
2022/01/03 07:37:19;;;;;;;15.38;8.10;;;23.00;56.30;;;;;;4205659;27;20070;-60
2022/01/03 07:39:22;;;;;;;17.90;9.35;;;22.90;56.20;;;;;;4202666;27;21340;-62
2022/01/03 07:41:24;;;;;;;15.07;8.25;;;22.90;56.10;;;;;;4212438;27;20062;-62
2022/01/03 07:43:26;;;;;;;16.80;8.02;;;22.90;56.10;;;;;;4204169;27;20280;-61
2022/01/03 07:45:28;;;;;;;16.20;8.32;;;22.90;56.10;;;;;;4190460;27;20043;-60
2022/01/03 07:47:31;;;;;;;19.67;10.33;;;22.90;56.00;;;;;;4209357;27;20039;-61
2022/01/03 07:49:33;;;;;;;19.92;12.02;;;22.90;56.20;;;;;;4194314;27;21256;-60
2022/01/03 07:51:35;;;;;;;24.08;13.27;;;22.80;56.00;;;;;;4200202;27;20451;-59
2022/01/03 07:53:37;;;;;;;20.60;12.32;;;22.80;56.20;;;;;;4207137;27;20051;-59
2022/01/03 07:55:40;;;;;;;19.08;11.60;;;22.80;56.00;;;;;;4196550;27;20981;-59
2022/01/03 07:57:43;;;;;;;14.63;9.55;;;22.70;56.40;;;;;;4190130;27;20305;-59
2022/01/03 07:59:45;;;;;;;;;;;22.70;56.30;;;;;;4190124;27;20240;-58
2022/01/03 08:01:47;;;;;;;12.07;7.65;;;22.70;56.90;;;;;;4175321;27;20435;-59
2022/01/03 08:03:49;;;;;;;12.25;7.30;;;22.70;56.30;;;;;;4157098;28;21886;-61
2022/01/03 08:05:51;;;;;;;10.65;6.72;;;22.60;56.40;;;;;;4143164;28;20553;-59
2022/01/03 08:07:54;;;;;;;9.95;6.25;;;22.60;56.40;;;;;;4155629;28;20063;-61
2022/01/03 08:09:56;;;;;;;11.90;6.15;;;22.60;56.60;;;;;;4147839;28;21379;-60
2022/01/03 08:12:00;;;;;;;9.68;5.82;;;22.50;56.60;;;;;;4139005;28;20439;-63
2022/01/03 08:14:02;;;;;;;10.65;6.05;;;22.50;56.80;;;;;;4152613;28;20067;-62
2022/01/03 08:16:04;;;;;;;11.82;7.18;;;22.50;57.00;;;;;;4154720;28;20056;-63
2022/01/03 08:18:07;;;;;;;12.05;7.13;;;22.50;57.00;;;;;;4130601;28;20053;-66
2022/01/03 08:20:10;;;;;;;8.73;6.30;;;22.50;56.90;;;;;;4145721;28;20060;-60
2022/01/03 08:22:12;;;;;;;8.82;5.75;;;22.40;56.70;;;;;;4160575;28;20059;-59
2022/01/03 08:24:14;;;;;;;8.68;5.28;;;22.40;56.50;;;;;;4133087;28;20838;-62
2022/01/03 08:26:16;;;;;;;6.43;4.93;;;22.40;57.00;;;;;;4152420;28;20159;-67
2022/01/03 08:28:19;;;;;;;6.95;4.50;;;22.40;56.70;;;;;;4137604;28;20045;-64
2022/01/03 08:30:21;;;;;;;7.57;4.83;;;22.30;56.60;;;;;;4139208;28;20701;-61
2022/01/03 08:32:23;;;;;;;5.53;3.65;;;22.30;57.00;;;;;;4143561;28;20170;-61
2022/01/03 08:34:26;;;;;;;5.00;3.20;;;22.30;56.80;;;;;;4152567;28;20119;-58
2022/01/03 08:36:28;;;;;;;9.77;3.80;;;22.20;57.00;;;;;;4139353;28;20044;-60
2022/01/03 08:38:30;;;;;;;5.45;3.13;;;22.20;57.30;;;;;;4151074;28;20608;-61
2022/01/03 08:40:33;;;;;;;4.90;2.92;;;22.30;57.40;;;;;;4150122;28;20501;-62
2022/01/03 08:42:35;;;;;;;4.43;2.92;;;22.40;58.20;;;;;;4161569;28;20047;-65
2022/01/03 08:44:37;;;;;;;3.75;2.25;;;22.50;58.40;;;;;;4151535;28;20282;-66
2022/01/03 08:46:40;;;;;;;5.30;2.75;;;22.70;58.80;;;;;;4150029;28;20040;-66
2022/01/03 08:48:42;;;;;;;7.57;3.05;;;22.80;58.90;;;;;;4153451;28;20059;-63
2022/01/03 08:50:44;;;;;;;4.10;2.55;;;23.00;59.20;;;;;;4134547;28;21431;-64
2022/01/03 08:52:48;;;;;;;2.92;2.10;;;23.10;59.30;;;;;;4147915;28;20452;-61
2022/01/03 08:54:50;;;;;;;3.38;2.17;;;23.20;59.40;;;;;;4131423;28;20105;-65
2022/01/03 08:56:52;;;;;;;5.60;2.53;;;23.30;59.40;;;;;;4157794;28;20047;-63
2022/01/03 08:58:54;;;;;;;4.85;2.30;;;23.40;59.40;;;;;;4128986;28;21035;-59
2022/01/03 09:00:56;;;;;;;3.40;1.80;;;23.50;59.90;;;;;;4130360;28;20317;-58
2022/01/03 09:02:59;;;;;;;4.85;1.77;;;23.60;59.70;;;;;;4130405;28;20070;-63
2022/01/03 09:05:01;;;;;;;4.50;2.05;;;23.80;59.80;;;;;;4147515;28;20912;-59
2022/01/03 09:07:03;;;;;;;3.58;1.70;;;23.90;59.80;;;;;;4147051;28;20797;-59
2022/01/03 09:09:06;;;;;;;3.15;1.73;;;24.00;59.90;;;;;;4150071;28;20151;-59
2022/01/03 09:11:08;;;;;;;5.90;2.13;;;24.00;59.90;;;;;;4156459;28;20051;-59
2022/01/03 09:13:10;;;;;;;4.05;1.58;;;24.10;59.90;;;;;;4142697;28;20417;-60
2022/01/03 09:15:12;;;;;;;4.45;1.40;;;24.20;59.90;;;;;;4143769;28;20105;-60
2022/01/03 09:17:14;;;;;;;9.38;1.60;;;24.30;60.00;;;;;;4136308;28;20163;-61
2022/01/03 09:19:16;;;;;;;3.83;1.20;;;24.30;60.00;;;;;;4128362;28;22033;-60
2022/01/03 09:21:19;;;;;;;3.03;1.35;;;24.40;60.10;;;;;;4130152;28;20075;-60
2022/01/03 09:23:29;;;;;;;3.72;1.48;;;24.50;60.00;;;;;;4149115;28;20581;-61
2022/01/03 09:30:02;;;;;;;3.92;1.20;;;24.60;60.50;;;;;;4131032;28;20041;-61
2022/01/03 09:32:06;;;;;;;4.80;1.45;;;24.70;60.80;;;;;;4155450;28;20044;-60
2022/01/03 09:34:08;;;;;;;3.05;0.80;;;24.80;60.50;;;;;;4148568;28;21588;-61
2022/01/03 09:36:10;;;;;;;2.78;1.10;;;24.80;60.60;;;;;;4130259;28;20095;-61
2022/01/03 09:38:13;;;;;;;3.92;1.15;;;24.90;60.50;;;;;;4135856;28;20184;-62
2022/01/03 09:40:16;;;;;;;;;;;24.90;60.70;;;;;;4154477;28;21611;-62
2022/01/03 09:42:28;;;;;;;3.00;1.10;;;25.00;60.50;;;;;;4160996;28;19943;-62
2022/01/03 09:44:33;;;;;;;4.10;1.13;;;25.10;60.50;;;;;;4145933;28;20052;-60
2022/01/03 09:46:37;;;;;;;2.20;1.10;;;25.10;60.40;;;;;;4147155;28;20045;-61
2022/01/03 09:48:44;;;;;;;4.03;1.00;;;25.20;60.50;;;;;;4137424;28;21011;-63
2022/01/03 09:50:47;;;;;;;1.23;0.80;;;25.20;60.40;;;;;;4157325;28;20513;-59
2022/01/03 09:52:51;;;;;;;1.67;0.70;;;25.30;60.40;;;;;;4130894;28;20473;-59
2022/01/03 09:54:54;;;;;;;2.25;0.93;;;25.30;60.40;;;;;;4148823;28;20048;-60
2022/01/03 09:57:01;;;;;;;2.05;0.90;;;25.40;61.00;;;;;;4151379;28;20183;-61
2022/01/03 09:59:05;;;;;;;1.63;0.85;;;25.40;60.60;;;;;;4157441;28;20048;-60
2022/01/03 10:19:08;;;;;;;2.97;1.05;;;25.90;60.60;;;;;;5114730;23;20025;-70
2022/01/03 10:21:11;;;;;;;2.15;0.90;;;25.90;60.50;;;;;;5060000;23;20513;-74
2022/01/03 10:23:15;;;;;;;4.93;0.90;;;26.00;60.50;;;;;;5066209;23;20431;-72
2022/01/03 10:25:18;;;;;;;2.58;1.23;;;26.00;60.50;;;;;;5062964;23;20024;-73
2022/01/03 10:27:23;;;;;;;4.97;0.95;;;26.10;60.70;;;;;;5091532;23;20075;-75
2022/01/03 10:29:33;;;;;;;2.15;0.85;;;26.10;60.20;;;;;;5092738;23;20052;-78
2022/01/03 10:31:39;;;;;;;2.10;0.85;;;26.10;60.00;;;;;;5071948;23;20127;-77
2022/01/03 10:33:43;;;;;;;2.03;0.82;;;26.10;60.30;;;;;;5124815;23;20047;-76
2022/01/03 10:35:56;;;;;;;2.28;1.00;;;26.10;59.50;;;;;;5096802;23;20060;-74
2022/01/03 10:37:59;;;;;;;1.95;0.95;;;26.20;59.30;;;;;;5100704;23;20330;-75
2022/01/03 10:40:16;;;;;;;2.07;0.80;;;26.20;59.20;;;;;;5095929;23;20551;-74
2022/01/03 10:42:21;;;;;;;3.63;0.80;;;26.20;59.40;;;;;;5120314;23;20029;-70
2022/01/03 10:44:43;;;;;;;2.17;0.80;;;26.30;60.20;;;;;;5119945;23;20559;-70
2022/01/03 10:46:50;;;;;;;2.58;0.60;;;26.30;60.50;;;;;;5089460;23;20035;-71
2022/01/03 10:48:56;;;;;;;1.85;1.00;;;26.30;60.90;;;;;;5115216;23;20151;-71
2022/01/03 10:50:59;;;;;;;2.85;1.13;;;26.30;60.90;;;;;;5112010;23;20812;-72
2022/01/03 10:53:02;;;;;;;2.40;0.88;;;26.40;61.20;;;;;;5088389;23;20035;-71
2022/01/03 10:55:22;;;;;;;2.55;0.70;;;26.40;61.20;;;;;;5087799;23;20020;-71
2022/01/03 10:57:54;;;;;;;2.03;0.80;;;26.40;61.30;;;;;;5091636;23;20028;-74
2022/01/03 11:00:15;;;;;;;3.83;1.00;;;26.50;61.40;;;;;;5084937;23;20514;-70
2022/01/03 11:02:17;;;;;;;2.75;1.02;;;26.50;61.50;;;;;;5092313;23;20044;-71
2022/01/03 11:04:33;;;;;;;2.75;0.80;;;26.50;61.50;;;;;;5083679;23;20025;-69
2022/01/03 11:11:05;;;;;;;1.75;1.05;;;26.50;61.50;;;;;;5099251;23;20143;-73
2022/01/03 11:13:14;;;;;;;2.53;1.10;;;26.60;61.50;;;;;;5092309;23;20053;-70
2022/01/03 11:15:24;;;;;;;4.65;1.23;;;26.70;61.50;;;;;;5114070;23;20060;-71
2022/01/03 11:17:29;;;;;;;3.78;0.90;;;26.60;61.50;;;;;;5112948;23;20052;-74
2022/01/03 11:19:38;;;;;;;2.72;0.95;;;26.60;61.40;;;;;;5082077;23;20143;-72
2022/01/03 11:21:44;;;;;;;2.28;0.90;;;26.70;61.50;;;;;;5085143;23;20041;-72